sensor_id;sensor_type;location;lat;lon;timestamp;P1;durP1;ratioP1;P2;durP2;ratioP2
47309;SDS011;33046;52.270;6.832;2022-11-15T00:01:09;14.15;;;10.80;;
47309;SDS011;33046;52.270;6.832;2022-11-15T00:03:39;14.77;;;10.40;;
47309;SDS011;33046;52.270;6.832;2022-11-15T00:06:04;12.07;;;10.35;;
47309;SDS011;33046;52.270;6.832;2022-11-15T00:08:30;15.15;;;11.73;;
47309;SDS011;33046;52.270;6.832;2022-11-15T00:10:56;15.38;;;9.63;;
47309;SDS011;33046;52.270;6.832;2022-11-15T00:13:22;13.82;;;10.13;;
47309;SDS011;33046;52.270;6.832;2022-11-15T00:15:48;14.43;;;10.73;;
47309;SDS011;33046;52.270;6.832;2022-11-15T00:18:14;12.52;;;10.50;;
47309;SDS011;33046;52.270;6.832;2022-11-15T00:20:40;13.77;;;10.95;;
47309;SDS011;33046;52.270;6.832;2022-11-15T00:23:06;13.82;;;11.07;;
47309;SDS011;33046;52.270;6.832;2022-11-15T00:25:31;13.68;;;11.07;;
47309;SDS011;33046;52.270;6.832;2022-11-15T00:27:57;16.10;;;12.25;;
47309;SDS011;33046;52.270;6.832;2022-11-15T00:30:24;13.43;;;10.57;;
47309;SDS011;33046;52.270;6.832;2022-11-15T00:32:51;14.27;;;11.38;;
47309;SDS011;33046;52.270;6.832;2022-11-15T00:35:17;14.43;;;11.48;;
47309;SDS011;33046;52.270;6.832;2022-11-15T00:37:43;14.18;;;11.52;;
47309;SDS011;33046;52.270;6.832;2022-11-15T00:40:09;13.52;;;10.93;;
47309;SDS011;33046;52.270;6.832;2022-11-15T00:42:35;20.67;;;12.43;;
47309;SDS011;33046;52.270;6.832;2022-11-15T00:45:01;18.85;;;12.85;;
47309;SDS011;33046;52.270;6.832;2022-11-15T00:47:26;16.02;;;11.68;;
47309;SDS011;33046;52.270;6.832;2022-11-15T00:49:53;15.93;;;12.27;;
47309;SDS011;33046;52.270;6.832;2022-11-15T00:52:19;18.83;;;13.95;;
47309;SDS011;33046;52.270;6.832;2022-11-15T00:54:44;19.27;;;12.70;;
47309;SDS011;33046;52.270;6.832;2022-11-15T00:57:10;18.83;;;13.93;;
47309;SDS011;33046;52.270;6.832;2022-11-15T00:59:35;15.95;;;12.35;;
47309;SDS011;33046;52.270;6.832;2022-11-15T01:02:00;22.77;;;14.25;;
47309;SDS011;33046;52.270;6.832;2022-11-15T01:04:26;18.75;;;14.00;;
47309;SDS011;33046;52.270;6.832;2022-11-15T01:06:53;20.08;;;14.15;;
47309;SDS011;33046;52.270;6.832;2022-11-15T01:09:19;19.90;;;14.65;;
47309;SDS011;33046;52.270;6.832;2022-11-15T01:11:44;19.90;;;13.75;;
47309;SDS011;33046;52.270;6.832;2022-11-15T01:14:10;20.23;;;13.50;;
47309;SDS011;33046;52.270;6.832;2022-11-15T01:16:35;19.15;;;13.55;;
47309;SDS011;33046;52.270;6.832;2022-11-15T01:19:01;22.15;;;15.23;;
47309;SDS011;33046;52.270;6.832;2022-11-15T01:21:27;17.45;;;12.85;;
47309;SDS011;33046;52.270;6.832;2022-11-15T01:23:54;19.42;;;12.98;;
47309;SDS011;33046;52.270;6.832;2022-11-15T01:26:20;19.60;;;13.93;;
47309;SDS011;33046;52.270;6.832;2022-11-15T01:28:46;25.00;;;15.73;;
47309;SDS011;33046;52.270;6.832;2022-11-15T01:31:12;26.23;;;13.50;;
47309;SDS011;33046;52.270;6.832;2022-11-15T01:33:39;20.00;;;13.23;;
47309;SDS011;33046;52.270;6.832;2022-11-15T01:36:05;22.45;;;14.10;;
47309;SDS011;33046;52.270;6.832;2022-11-15T01:38:32;24.77;;;15.38;;
47309;SDS011;33046;52.270;6.832;2022-11-15T01:40:59;16.63;;;13.50;;
47309;SDS011;33046;52.270;6.832;2022-11-15T01:43:25;20.83;;;14.13;;
47309;SDS011;33046;52.270;6.832;2022-11-15T01:45:53;20.52;;;15.23;;
47309;SDS011;33046;52.270;6.832;2022-11-15T01:48:24;18.80;;;14.10;;
47309;SDS011;33046;52.270;6.832;2022-11-15T01:50:54;21.70;;;14.25;;
47309;SDS011;33046;52.270;6.832;2022-11-15T01:53:19;18.10;;;13.38;;
47309;SDS011;33046;52.270;6.832;2022-11-15T01:55:48;19.73;;;13.95;;
47309;SDS011;33046;52.270;6.832;2022-11-15T01:58:14;19.70;;;13.35;;
47309;SDS011;33046;52.270;6.832;2022-11-15T02:00:40;15.07;;;12.13;;
47309;SDS011;33046;52.270;6.832;2022-11-15T02:03:05;15.88;;;13.52;;
47309;SDS011;33046;52.270;6.832;2022-11-15T02:05:31;19.13;;;13.57;;
47309;SDS011;33046;52.270;6.832;2022-11-15T02:07:59;17.10;;;13.25;;
47309;SDS011;33046;52.270;6.832;2022-11-15T02:10:25;16.33;;;13.60;;
47309;SDS011;33046;52.270;6.832;2022-11-15T02:12:52;17.73;;;12.60;;
47309;SDS011;33046;52.270;6.832;2022-11-15T02:15:20;17.20;;;12.82;;
47309;SDS011;33046;52.270;6.832;2022-11-15T02:17:58;18.75;;;13.63;;
47309;SDS011;33046;52.270;6.832;2022-11-15T02:20:36;15.73;;;13.15;;
47309;SDS011;33046;52.270;6.832;2022-11-15T02:23:14;15.73;;;13.68;;
47309;SDS011;33046;52.270;6.832;2022-11-15T02:26:01;15.77;;;12.63;;
47309;SDS011;33046;52.270;6.832;2022-11-15T02:28:48;17.45;;;13.15;;
47309;SDS011;33046;52.270;6.832;2022-11-15T02:31:25;16.02;;;13.63;;
47309;SDS011;33046;52.270;6.832;2022-11-15T02:33:56;15.57;;;13.07;;
47309;SDS011;33046;52.270;6.832;2022-11-15T02:36:30;16.02;;;13.23;;
47309;SDS011;33046;52.270;6.832;2022-11-15T02:41:30;17.98;;;13.15;;
47309;SDS011;33046;52.270;6.832;2022-11-15T02:43:59;18.13;;;13.88;;
47309;SDS011;33046;52.270;6.832;2022-11-15T02:46:33;17.98;;;13.90;;
47309;SDS011;33046;52.270;6.832;2022-11-15T02:49:01;16.90;;;12.07;;
47309;SDS011;33046;52.270;6.832;2022-11-15T02:51:27;17.98;;;13.82;;
47309;SDS011;33046;52.270;6.832;2022-11-15T02:53:52;19.08;;;13.73;;
47309;SDS011;33046;52.270;6.832;2022-11-15T02:56:18;18.33;;;14.23;;
47309;SDS011;33046;52.270;6.832;2022-11-15T02:58:57;21.13;;;14.30;;
47309;SDS011;33046;52.270;6.832;2022-11-15T03:01:36;14.65;;;11.90;;
47309;SDS011;33046;52.270;6.832;2022-11-15T03:04:09;14.23;;;12.25;;
47309;SDS011;33046;52.270;6.832;2022-11-15T03:06:45;15.68;;;12.52;;
47309;SDS011;33046;52.270;6.832;2022-11-15T03:09:14;20.40;;;13.45;;
47309;SDS011;33046;52.270;6.832;2022-11-15T03:11:48;15.85;;;13.25;;
47309;SDS011;33046;52.270;6.832;2022-11-15T03:14:19;15.57;;;12.35;;
47309;SDS011;33046;52.270;6.832;2022-11-15T03:16:51;16.10;;;13.07;;
47309;SDS011;33046;52.270;6.832;2022-11-15T03:19:25;16.42;;;12.57;;
47309;SDS011;33046;52.270;6.832;2022-11-15T03:21:56;15.77;;;11.13;;
47309;SDS011;33046;52.270;6.832;2022-11-15T03:24:24;15.57;;;12.23;;
47309;SDS011;33046;52.270;6.832;2022-11-15T03:26:51;15.68;;;11.40;;
47309;SDS011;33046;52.270;6.832;2022-11-15T03:29:19;15.50;;;11.50;;
47309;SDS011;33046;52.270;6.832;2022-11-15T03:31:51;18.60;;;11.07;;
47309;SDS011;33046;52.270;6.832;2022-11-15T03:34:24;17.40;;;11.07;;
47309;SDS011;33046;52.270;6.832;2022-11-15T03:36:52;16.40;;;13.05;;
47309;SDS011;33046;52.270;6.832;2022-11-15T03:39:18;13.20;;;11.27;;
47309;SDS011;33046;52.270;6.832;2022-11-15T03:41:46;16.00;;;12.38;;
47309;SDS011;33046;52.270;6.832;2022-11-15T03:44:15;12.80;;;10.93;;
47309;SDS011;33046;52.270;6.832;2022-11-15T03:46:47;17.45;;;12.32;;
47309;SDS011;33046;52.270;6.832;2022-11-15T03:49:22;12.98;;;11.68;;
47309;SDS011;33046;52.270;6.832;2022-11-15T03:51:52;14.95;;;12.07;;
47309;SDS011;33046;52.270;6.832;2022-11-15T03:54:17;12.55;;;11.27;;
47309;SDS011;33046;52.270;6.832;2022-11-15T03:56:43;15.80;;;12.30;;
47309;SDS011;33046;52.270;6.832;2022-11-15T03:59:08;12.45;;;11.23;;
47309;SDS011;33046;52.270;6.832;2022-11-15T04:01:34;16.23;;;10.95;;
47309;SDS011;33046;52.270;6.832;2022-11-15T04:04:01;13.57;;;11.15;;
47309;SDS011;33046;52.270;6.832;2022-11-15T04:06:26;16.50;;;10.90;;
47309;SDS011;33046;52.270;6.832;2022-11-15T04:08:51;12.93;;;11.40;;
47309;SDS011;33046;52.270;6.832;2022-11-15T04:11:17;18.63;;;12.23;;
47309;SDS011;33046;52.270;6.832;2022-11-15T04:13:42;13.77;;;11.88;;
47309;SDS011;33046;52.270;6.832;2022-11-15T04:16:08;14.80;;;11.68;;
47309;SDS011;33046;52.270;6.832;2022-11-15T04:18:33;14.63;;;11.52;;
47309;SDS011;33046;52.270;6.832;2022-11-15T04:21:00;14.40;;;11.45;;
47309;SDS011;33046;52.270;6.832;2022-11-15T04:23:25;14.80;;;11.95;;
47309;SDS011;33046;52.270;6.832;2022-11-15T04:25:51;16.40;;;12.57;;
47309;SDS011;33046;52.270;6.832;2022-11-15T04:28:18;14.70;;;11.48;;
47309;SDS011;33046;52.270;6.832;2022-11-15T04:30:44;15.80;;;11.98;;
47309;SDS011;33046;52.270;6.832;2022-11-15T04:33:09;14.70;;;11.48;;
47309;SDS011;33046;52.270;6.832;2022-11-15T04:35:35;13.40;;;11.60;;
47309;SDS011;33046;52.270;6.832;2022-11-15T04:38:02;14.00;;;11.68;;
47309;SDS011;33046;52.270;6.832;2022-11-15T04:40:29;12.48;;;11.15;;
47309;SDS011;33046;52.270;6.832;2022-11-15T04:42:54;15.82;;;11.52;;
47309;SDS011;33046;52.270;6.832;2022-11-15T04:45:23;14.02;;;11.57;;
47309;SDS011;33046;52.270;6.832;2022-11-15T04:47:48;13.38;;;11.40;;
47309;SDS011;33046;52.270;6.832;2022-11-15T04:50:14;15.15;;;11.23;;
47309;SDS011;33046;52.270;6.832;2022-11-15T04:52:40;14.55;;;10.45;;
47309;SDS011;33046;52.270;6.832;2022-11-15T04:55:07;14.30;;;9.68;;
47309;SDS011;33046;52.270;6.832;2022-11-15T04:57:33;12.23;;;10.63;;
47309;SDS011;33046;52.270;6.832;2022-11-15T04:59:58;12.13;;;10.98;;
47309;SDS011;33046;52.270;6.832;2022-11-15T05:02:24;16.15;;;12.15;;
47309;SDS011;33046;52.270;6.832;2022-11-15T05:04:49;13.20;;;10.90;;
47309;SDS011;33046;52.270;6.832;2022-11-15T05:07:15;14.02;;;11.25;;
47309;SDS011;33046;52.270;6.832;2022-11-15T05:09:40;14.10;;;10.50;;
47309;SDS011;33046;52.270;6.832;2022-11-15T05:12:07;19.48;;;11.23;;
47309;SDS011;33046;52.270;6.832;2022-11-15T05:14:33;13.05;;;11.70;;
47309;SDS011;33046;52.270;6.832;2022-11-15T05:16:58;13.00;;;10.07;;
47309;SDS011;33046;52.270;6.832;2022-11-15T05:19:23;13.45;;;11.75;;
47309;SDS011;33046;52.270;6.832;2022-11-15T05:21:49;11.75;;;9.88;;
47309;SDS011;33046;52.270;6.832;2022-11-15T05:24:14;13.23;;;11.18;;
47309;SDS011;33046;52.270;6.832;2022-11-15T05:26:40;12.45;;;10.50;;
47309;SDS011;33046;52.270;6.832;2022-11-15T05:29:08;16.70;;;10.65;;
47309;SDS011;33046;52.270;6.832;2022-11-15T05:31:35;13.00;;;10.63;;
47309;SDS011;33046;52.270;6.832;2022-11-15T05:34:04;17.60;;;12.88;;
47309;SDS011;33046;52.270;6.832;2022-11-15T05:36:31;11.93;;;10.80;;
47309;SDS011;33046;52.270;6.832;2022-11-15T05:39:00;12.48;;;11.15;;
47309;SDS011;33046;52.270;6.832;2022-11-15T05:41:27;17.58;;;11.98;;
47309;SDS011;33046;52.270;6.832;2022-11-15T05:43:57;12.55;;;10.98;;
47309;SDS011;33046;52.270;6.832;2022-11-15T05:46:24;14.23;;;10.65;;
47309;SDS011;33046;52.270;6.832;2022-11-15T05:48:50;13.63;;;10.80;;
47309;SDS011;33046;52.270;6.832;2022-11-15T05:51:17;14.88;;;11.20;;
47309;SDS011;33046;52.270;6.832;2022-11-15T05:53:44;12.38;;;11.02;;
47309;SDS011;33046;52.270;6.832;2022-11-15T05:56:11;14.55;;;10.05;;
47309;SDS011;33046;52.270;6.832;2022-11-15T05:58:37;11.27;;;9.85;;
47309;SDS011;33046;52.270;6.832;2022-11-15T06:01:02;12.70;;;11.15;;
47309;SDS011;33046;52.270;6.832;2022-11-15T06:03:30;15.68;;;9.30;;
47309;SDS011;33046;52.270;6.832;2022-11-15T06:05:56;11.40;;;9.85;;
47309;SDS011;33046;52.270;6.832;2022-11-15T06:08:21;11.27;;;9.93;;
47309;SDS011;33046;52.270;6.832;2022-11-15T06:10:47;11.80;;;9.77;;
47309;SDS011;33046;52.270;6.832;2022-11-15T06:13:13;11.77;;;9.10;;
47309;SDS011;33046;52.270;6.832;2022-11-15T06:15:38;10.80;;;8.88;;
47309;SDS011;33046;52.270;6.832;2022-11-15T06:18:04;13.32;;;10.35;;
47309;SDS011;33046;52.270;6.832;2022-11-15T06:20:31;14.30;;;9.60;;
47309;SDS011;33046;52.270;6.832;2022-11-15T06:22:57;13.32;;;11.23;;
47309;SDS011;33046;52.270;6.832;2022-11-15T06:25:22;14.63;;;10.25;;
47309;SDS011;33046;52.270;6.832;2022-11-15T06:27:50;12.88;;;11.18;;
47309;SDS011;33046;52.270;6.832;2022-11-15T06:30:16;15.23;;;11.05;;
47309;SDS011;33046;52.270;6.832;2022-11-15T06:32:41;12.98;;;11.68;;
47309;SDS011;33046;52.270;6.832;2022-11-15T06:35:07;12.65;;;11.25;;
47309;SDS011;33046;52.270;6.832;2022-11-15T06:37:34;12.55;;;11.25;;
47309;SDS011;33046;52.270;6.832;2022-11-15T06:40:00;11.55;;;10.27;;
47309;SDS011;33046;52.270;6.832;2022-11-15T06:42:25;16.60;;;12.25;;
47309;SDS011;33046;52.270;6.832;2022-11-15T06:44:51;11.82;;;10.77;;
47309;SDS011;33046;52.270;6.832;2022-11-15T06:47:16;13.30;;;11.95;;
47309;SDS011;33046;52.270;6.832;2022-11-15T06:49:41;13.13;;;11.18;;
47309;SDS011;33046;52.270;6.832;2022-11-15T06:52:07;18.30;;;12.88;;
47309;SDS011;33046;52.270;6.832;2022-11-15T06:54:34;12.07;;;10.35;;
47309;SDS011;33046;52.270;6.832;2022-11-15T06:56:59;13.20;;;11.35;;
47309;SDS011;33046;52.270;6.832;2022-11-15T06:59:24;14.55;;;13.07;;
47309;SDS011;33046;52.270;6.832;2022-11-15T07:01:50;14.35;;;11.32;;
47309;SDS011;33046;52.270;6.832;2022-11-15T07:04:15;13.23;;;12.00;;
47309;SDS011;33046;52.270;6.832;2022-11-15T07:06:41;13.55;;;12.25;;
47309;SDS011;33046;52.270;6.832;2022-11-15T07:09:06;13.70;;;12.32;;
47309;SDS011;33046;52.270;6.832;2022-11-15T07:11:33;15.95;;;13.43;;
47309;SDS011;33046;52.270;6.832;2022-11-15T07:13:59;14.00;;;12.55;;
47309;SDS011;33046;52.270;6.832;2022-11-15T07:16:24;14.52;;;13.23;;
47309;SDS011;33046;52.270;6.832;2022-11-15T07:18:50;14.10;;;12.75;;
47309;SDS011;33046;52.270;6.832;2022-11-15T07:21:15;15.88;;;14.30;;
47309;SDS011;33046;52.270;6.832;2022-11-15T07:23:41;15.27;;;12.98;;
47309;SDS011;33046;52.270;6.832;2022-11-15T07:26:06;13.27;;;12.07;;
47309;SDS011;33046;52.270;6.832;2022-11-15T07:28:34;14.52;;;13.13;;
47309;SDS011;33046;52.270;6.832;2022-11-15T07:31:01;15.82;;;14.32;;
47309;SDS011;33046;52.270;6.832;2022-11-15T07:33:27;16.10;;;14.52;;
47309;SDS011;33046;52.270;6.832;2022-11-15T07:35:52;13.30;;;12.13;;
47309;SDS011;33046;52.270;6.832;2022-11-15T07:38:18;14.65;;;13.25;;
47309;SDS011;33046;52.270;6.832;2022-11-15T07:40:43;15.98;;;14.38;;
47309;SDS011;33046;52.270;6.832;2022-11-15T07:43:09;13.32;;;12.13;;
47309;SDS011;33046;52.270;6.832;2022-11-15T07:45:41;14.70;;;13.23;;
47309;SDS011;33046;52.270;6.832;2022-11-15T07:48:07;14.15;;;12.85;;
47309;SDS011;33046;52.270;6.832;2022-11-15T07:50:33;15.60;;;13.32;;
47309;SDS011;33046;52.270;6.832;2022-11-15T07:52:59;13.25;;;11.65;;
47309;SDS011;33046;52.270;6.832;2022-11-15T07:55:24;15.05;;;13.50;;
47309;SDS011;33046;52.270;6.832;2022-11-15T07:57:51;14.63;;;13.35;;
47309;SDS011;33046;52.270;6.832;2022-11-15T08:00:17;16.77;;;15.15;;
47309;SDS011;33046;52.270;6.832;2022-11-15T08:02:44;13.45;;;12.07;;
47309;SDS011;33046;52.270;6.832;2022-11-15T08:05:10;14.25;;;12.80;;
47309;SDS011;33046;52.270;6.832;2022-11-15T08:07:36;15.10;;;12.65;;
47309;SDS011;33046;52.270;6.832;2022-11-15T08:10:01;13.40;;;12.20;;
47309;SDS011;33046;52.270;6.832;2022-11-15T08:12:27;14.90;;;11.98;;
47309;SDS011;33046;52.270;6.832;2022-11-15T08:14:53;13.52;;;12.00;;
47309;SDS011;33046;52.270;6.832;2022-11-15T08:17:18;14.80;;;13.40;;
47309;SDS011;33046;52.270;6.832;2022-11-15T08:19:45;13.10;;;11.85;;
47309;SDS011;33046;52.270;6.832;2022-11-15T08:22:10;12.98;;;11.57;;
47309;SDS011;33046;52.270;6.832;2022-11-15T08:24:36;12.80;;;11.20;;
47309;SDS011;33046;52.270;6.832;2022-11-15T08:27:02;13.70;;;10.75;;
47309;SDS011;33046;52.270;6.832;2022-11-15T08:29:27;11.07;;;10.07;;
47309;SDS011;33046;52.270;6.832;2022-11-15T08:31:54;12.60;;;10.50;;
47309;SDS011;33046;52.270;6.832;2022-11-15T08:34:19;10.88;;;9.77;;
47309;SDS011;33046;52.270;6.832;2022-11-15T08:36:46;10.88;;;9.80;;
47309;SDS011;33046;52.270;6.832;2022-11-15T08:39:12;10.70;;;9.70;;
47309;SDS011;33046;52.270;6.832;2022-11-15T08:41:37;9.95;;;9.02;;
47309;SDS011;33046;52.270;6.832;2022-11-15T08:44:03;10.70;;;8.88;;
47309;SDS011;33046;52.270;6.832;2022-11-15T08:46:28;13.38;;;9.82;;
47309;SDS011;33046;52.270;6.832;2022-11-15T08:48:54;9.75;;;8.30;;
47309;SDS011;33046;52.270;6.832;2022-11-15T08:51:19;8.70;;;7.90;;
47309;SDS011;33046;52.270;6.832;2022-11-15T08:53:46;9.35;;;8.43;;
47309;SDS011;33046;52.270;6.832;2022-11-15T08:56:13;8.15;;;7.00;;
47309;SDS011;33046;52.270;6.832;2022-11-15T08:58:39;9.25;;;7.47;;
47309;SDS011;33046;52.270;6.832;2022-11-15T09:01:04;7.90;;;7.07;;
47309;SDS011;33046;52.270;6.832;2022-11-15T09:03:30;7.90;;;7.15;;
47309;SDS011;33046;52.270;6.832;2022-11-15T09:05:56;8.02;;;6.32;;
47309;SDS011;33046;52.270;6.832;2022-11-15T09:08:22;7.95;;;6.88;;
47309;SDS011;33046;52.270;6.832;2022-11-15T09:11:09;9.02;;;7.88;;
47309;SDS011;33046;52.270;6.832;2022-11-15T09:13:35;9.45;;;7.95;;
47309;SDS011;33046;52.270;6.832;2022-11-15T09:16:01;7.78;;;6.75;;
47309;SDS011;33046;52.270;6.832;2022-11-15T09:18:26;7.95;;;7.07;;
47309;SDS011;33046;52.270;6.832;2022-11-15T09:20:54;8.07;;;7.10;;
47309;SDS011;33046;52.270;6.832;2022-11-15T09:23:20;10.23;;;7.57;;
47309;SDS011;33046;52.270;6.832;2022-11-15T09:25:45;9.95;;;7.65;;
47309;SDS011;33046;52.270;6.832;2022-11-15T09:28:12;7.75;;;6.85;;
47309;SDS011;33046;52.270;6.832;2022-11-15T09:30:37;9.50;;;7.10;;
47309;SDS011;33046;52.270;6.832;2022-11-15T09:33:06;9.98;;;8.10;;
47309;SDS011;33046;52.270;6.832;2022-11-15T09:35:31;9.25;;;7.70;;
47309;SDS011;33046;52.270;6.832;2022-11-15T09:37:57;8.27;;;7.57;;
47309;SDS011;33046;52.270;6.832;2022-11-15T09:40:22;8.10;;;7.30;;
47309;SDS011;33046;52.270;6.832;2022-11-15T09:42:52;7.68;;;6.93;;
47309;SDS011;33046;52.270;6.832;2022-11-15T09:45:30;6.65;;;5.97;;
47309;SDS011;33046;52.270;6.832;2022-11-15T09:48:29;8.88;;;5.07;;
47309;SDS011;33046;52.270;6.832;2022-11-15T09:51:23;5.88;;;3.70;;
47309;SDS011;33046;52.270;6.832;2022-11-15T09:53:34;6.35;;;4.18;;
47309;SDS011;33046;52.270;6.832;2022-11-15T09:58:21;6.85;;;2.88;;
47309;SDS011;33046;52.270;6.832;2022-11-15T10:00:38;4.78;;;2.70;;
47309;SDS011;33046;52.270;6.832;2022-11-15T10:02:57;4.07;;;2.85;;
47309;SDS011;33046;52.270;6.832;2022-11-15T10:05:17;6.38;;;3.38;;
47309;SDS011;33046;52.270;6.832;2022-11-15T10:07:27;5.63;;;3.55;;
47309;SDS011;33046;52.270;6.832;2022-11-15T10:09:42;4.30;;;3.55;;
47309;SDS011;33046;52.270;6.832;2022-11-15T10:11:53;4.53;;;3.40;;
47309;SDS011;33046;52.270;6.832;2022-11-15T10:14:01;3.75;;;2.90;;
47309;SDS011;33046;52.270;6.832;2022-11-15T10:16:18;3.85;;;3.40;;
47309;SDS011;33046;52.270;6.832;2022-11-15T10:18:43;5.50;;;3.60;;
47309;SDS011;33046;52.270;6.832;2022-11-15T10:20:59;7.35;;;2.80;;
47309;SDS011;33046;52.270;6.832;2022-11-15T10:23:13;5.10;;;3.70;;
47309;SDS011;33046;52.270;6.832;2022-11-15T10:25:23;4.82;;;3.85;;
47309;SDS011;33046;52.270;6.832;2022-11-15T10:27:31;4.82;;;3.70;;
47309;SDS011;33046;52.270;6.832;2022-11-15T10:29:42;4.60;;;3.67;;
47309;SDS011;33046;52.270;6.832;2022-11-15T10:31:50;6.78;;;4.00;;
47309;SDS011;33046;52.270;6.832;2022-11-15T10:33:59;10.38;;;4.22;;
47309;SDS011;33046;52.270;6.832;2022-11-15T10:36:19;4.38;;;3.65;;
47309;SDS011;33046;52.270;6.832;2022-11-15T10:38:27;5.88;;;3.13;;
47309;SDS011;33046;52.270;6.832;2022-11-15T10:40:34;5.72;;;4.10;;
47309;SDS011;33046;52.270;6.832;2022-11-15T10:42:42;4.72;;;3.90;;
47309;SDS011;33046;52.270;6.832;2022-11-15T10:44:49;5.78;;;3.22;;
47309;SDS011;33046;52.270;6.832;2022-11-15T10:49:36;3.72;;;2.35;;
47309;SDS011;33046;52.270;6.832;2022-11-15T10:52:00;5.78;;;3.03;;
47309;SDS011;33046;52.270;6.832;2022-11-15T10:54:10;3.95;;;2.17;;
47309;SDS011;33046;52.270;6.832;2022-11-15T10:56:20;4.22;;;2.80;;
47309;SDS011;33046;52.270;6.832;2022-11-15T10:58:32;5.60;;;2.10;;
47309;SDS011;33046;52.270;6.832;2022-11-15T11:00:42;4.60;;;1.95;;
47309;SDS011;33046;52.270;6.832;2022-11-15T11:02:57;3.58;;;2.08;;
47309;SDS011;33046;52.270;6.832;2022-11-15T11:05:06;5.50;;;2.00;;
47309;SDS011;33046;52.270;6.832;2022-11-15T11:07:32;3.85;;;1.85;;
47309;SDS011;33046;52.270;6.832;2022-11-15T11:09:40;3.88;;;1.80;;
47309;SDS011;33046;52.270;6.832;2022-11-15T11:11:47;3.83;;;1.85;;
47309;SDS011;33046;52.270;6.832;2022-11-15T11:13:55;12.82;;;2.05;;
47309;SDS011;33046;52.270;6.832;2022-11-15T11:18:57;2.97;;;1.60;;
47309;SDS011;33046;52.270;6.832;2022-11-15T11:21:11;4.00;;;2.15;;
47309;SDS011;33046;52.270;6.832;2022-11-15T11:23:29;2.55;;;1.40;;
47309;SDS011;33046;52.270;6.832;2022-11-15T11:25:50;5.88;;;2.05;;
47309;SDS011;33046;52.270;6.832;2022-11-15T11:30:40;1.42;;;1.15;;
47309;SDS011;33046;52.270;6.832;2022-11-15T11:33:00;3.95;;;1.30;;
47309;SDS011;33046;52.270;6.832;2022-11-15T11:35:22;2.08;;;1.08;;
47309;SDS011;33046;52.270;6.832;2022-11-15T11:37:35;3.47;;;1.45;;
47309;SDS011;33046;52.270;6.832;2022-11-15T11:39:48;2.55;;;1.35;;
47309;SDS011;33046;52.270;6.832;2022-11-15T11:42:08;4.95;;;1.33;;
47309;SDS011;33046;52.270;6.832;2022-11-15T11:44:30;2.67;;;0.80;;
47309;SDS011;33046;52.270;6.832;2022-11-15T11:46:47;3.10;;;1.45;;
47309;SDS011;33046;52.270;6.832;2022-11-15T11:48:59;2.75;;;0.70;;
47309;SDS011;33046;52.270;6.832;2022-11-15T11:51:13;2.08;;;0.70;;
47309;SDS011;33046;52.270;6.832;2022-11-15T11:53:25;1.77;;;0.90;;
47309;SDS011;33046;52.270;6.832;2022-11-15T11:55:36;3.25;;;1.10;;
47309;SDS011;33046;52.270;6.832;2022-11-15T11:57:46;1.80;;;1.30;;
47309;SDS011;33046;52.270;6.832;2022-11-15T11:59:58;1.65;;;1.20;;
47309;SDS011;33046;52.270;6.832;2022-11-15T12:02:18;1.70;;;1.00;;
47309;SDS011;33046;52.270;6.832;2022-11-15T12:04:34;3.53;;;1.23;;
47309;SDS011;33046;52.270;6.832;2022-11-15T12:06:48;1.90;;;1.23;;
47309;SDS011;33046;52.270;6.832;2022-11-15T12:08:59;2.25;;;1.15;;
47309;SDS011;33046;52.270;6.832;2022-11-15T12:11:12;2.63;;;1.20;;
47309;SDS011;33046;52.270;6.832;2022-11-15T12:13:24;2.35;;;1.20;;
47309;SDS011;33046;52.270;6.832;2022-11-15T12:15:36;2.33;;;1.50;;
47309;SDS011;33046;52.270;6.832;2022-11-15T12:17:48;4.60;;;3.80;;
47309;SDS011;33046;52.270;6.832;2022-11-15T12:19:56;3.33;;;3.03;;
47309;SDS011;33046;52.270;6.832;2022-11-15T12:22:08;4.85;;;3.45;;
47309;SDS011;33046;52.270;6.832;2022-11-15T12:24:20;5.00;;;4.53;;
47309;SDS011;33046;52.270;6.832;2022-11-15T12:26:31;8.43;;;5.28;;
47309;SDS011;33046;52.270;6.832;2022-11-15T12:28:42;7.50;;;6.32;;
47309;SDS011;33046;52.270;6.832;2022-11-15T12:31:05;6.10;;;5.50;;
47309;SDS011;33046;52.270;6.832;2022-11-15T12:33:30;5.95;;;5.32;;
47309;SDS011;33046;52.270;6.832;2022-11-15T12:35:41;5.53;;;5.03;;
47309;SDS011;33046;52.270;6.832;2022-11-15T12:37:50;6.22;;;4.68;;
47309;SDS011;33046;52.270;6.832;2022-11-15T12:40:14;6.22;;;5.10;;
47309;SDS011;33046;52.270;6.832;2022-11-15T12:42:39;5.68;;;4.40;;
47309;SDS011;33046;52.270;6.832;2022-11-15T12:44:57;6.18;;;4.30;;
47309;SDS011;33046;52.270;6.832;2022-11-15T12:47:22;5.25;;;3.83;;
47309;SDS011;33046;52.270;6.832;2022-11-15T12:49:46;5.07;;;3.72;;
47309;SDS011;33046;52.270;6.832;2022-11-15T12:52:03;6.10;;;3.40;;
47309;SDS011;33046;52.270;6.832;2022-11-15T12:59:47;5.88;;;2.67;;
47309;SDS011;33046;52.270;6.832;2022-11-15T13:01:56;4.10;;;2.70;;
47309;SDS011;33046;52.270;6.832;2022-11-15T13:04:08;5.15;;;2.30;;
47309;SDS011;33046;52.270;6.832;2022-11-15T13:06:37;4.18;;;2.17;;
47309;SDS011;33046;52.270;6.832;2022-11-15T13:08:47;3.30;;;2.20;;
47309;SDS011;33046;52.270;6.832;2022-11-15T13:10:57;3.55;;;2.33;;
47309;SDS011;33046;52.270;6.832;2022-11-15T13:13:04;3.55;;;1.77;;
47309;SDS011;33046;52.270;6.832;2022-11-15T13:17:46;3.37;;;1.93;;
47309;SDS011;33046;52.270;6.832;2022-11-15T13:19:56;2.22;;;1.20;;
47309;SDS011;33046;52.270;6.832;2022-11-15T13:22:08;1.92;;;1.55;;
47309;SDS011;33046;52.270;6.832;2022-11-15T13:24:16;3.20;;;1.50;;
47309;SDS011;33046;52.270;6.832;2022-11-15T13:26:24;1.48;;;1.20;;
47309;SDS011;33046;52.270;6.832;2022-11-15T13:28:32;7.13;;;1.77;;
47309;SDS011;33046;52.270;6.832;2022-11-15T13:30:40;3.75;;;1.23;;
47309;SDS011;33046;52.270;6.832;2022-11-15T13:32:55;3.85;;;1.00;;
47309;SDS011;33046;52.270;6.832;2022-11-15T13:35:06;6.80;;;1.23;;
47309;SDS011;33046;52.270;6.832;2022-11-15T13:37:26;1.30;;;1.10;;
47309;SDS011;33046;52.270;6.832;2022-11-15T13:39:35;1.80;;;1.00;;
47309;SDS011;33046;52.270;6.832;2022-11-15T13:41:46;1.92;;;0.85;;
47309;SDS011;33046;52.270;6.832;2022-11-15T13:43:55;0.90;;;0.60;;
47309;SDS011;33046;52.270;6.832;2022-11-15T13:46:06;2.85;;;0.90;;
47309;SDS011;33046;52.270;6.832;2022-11-15T13:48:16;1.17;;;0.90;;
47309;SDS011;33046;52.270;6.832;2022-11-15T13:50:25;1.33;;;0.77;;
47309;SDS011;33046;52.270;6.832;2022-11-15T13:52:35;2.63;;;0.90;;
47309;SDS011;33046;52.270;6.832;2022-11-15T13:54:44;0.75;;;0.68;;
47309;SDS011;33046;52.270;6.832;2022-11-15T13:57:01;1.42;;;0.60;;
47309;SDS011;33046;52.270;6.832;2022-11-15T13:59:10;2.60;;;1.08;;
47309;SDS011;33046;52.270;6.832;2022-11-15T14:01:23;1.95;;;0.73;;
47309;SDS011;33046;52.270;6.832;2022-11-15T14:03:38;2.05;;;0.80;;
47309;SDS011;33046;52.270;6.832;2022-11-15T14:06:03;2.38;;;1.08;;
47309;SDS011;33046;52.270;6.832;2022-11-15T14:08:20;1.08;;;0.60;;
47309;SDS011;33046;52.270;6.832;2022-11-15T14:10:30;6.65;;;1.17;;
47309;SDS011;33046;52.270;6.832;2022-11-15T14:12:39;2.05;;;0.90;;
47309;SDS011;33046;52.270;6.832;2022-11-15T14:14:56;2.03;;;0.70;;
47309;SDS011;33046;52.270;6.832;2022-11-15T14:17:04;4.50;;;0.95;;
47309;SDS011;33046;52.270;6.832;2022-11-15T14:19:11;1.40;;;0.80;;
47309;SDS011;33046;52.270;6.832;2022-11-15T14:21:19;1.48;;;0.73;;
47309;SDS011;33046;52.270;6.832;2022-11-15T14:23:27;1.92;;;0.60;;
47309;SDS011;33046;52.270;6.832;2022-11-15T14:25:34;2.88;;;1.02;;
47309;SDS011;33046;52.270;6.832;2022-11-15T14:27:43;2.60;;;0.70;;